sensor_id;sensor_type;location;lat;lon;timestamp;temperature;humidity
21108;DHT22;10712;52.944;9.098;2023-07-13T00:00:04;16.30;85.30
21108;DHT22;10712;52.944;9.098;2023-07-13T00:02:40;16.20;85.50
21108;DHT22;10712;52.944;9.098;2023-07-13T00:05:06;16.20;85.80
21108;DHT22;10712;52.944;9.098;2023-07-13T00:07:32;16.10;86.00
21108;DHT22;10712;52.944;9.098;2023-07-13T00:09:58;16.10;85.90
21108;DHT22;10712;52.944;9.098;2023-07-13T00:12:36;16.10;85.90
21108;DHT22;10712;52.944;9.098;2023-07-13T00:15:21;16.10;85.90
21108;DHT22;10712;52.944;9.098;2023-07-13T00:17:50;16.00;86.20
21108;DHT22;10712;52.944;9.098;2023-07-13T00:20:18;16.00;86.60
21108;DHT22;10712;52.944;9.098;2023-07-13T00:22:46;16.00;86.50
21108;DHT22;10712;52.944;9.098;2023-07-13T00:25:13;16.00;86.50
21108;DHT22;10712;52.944;9.098;2023-07-13T00:27:39;16.00;86.40
21108;DHT22;10712;52.944;9.098;2023-07-13T00:30:05;16.00;86.50
21108;DHT22;10712;52.944;9.098;2023-07-13T00:32:32;16.00;86.50
21108;DHT22;10712;52.944;9.098;2023-07-13T00:34:58;16.00;86.60
21108;DHT22;10712;52.944;9.098;2023-07-13T00:37:25;16.00;86.50
21108;DHT22;10712;52.944;9.098;2023-07-13T00:39:51;16.00;86.50
21108;DHT22;10712;52.944;9.098;2023-07-13T00:42:17;15.90;86.40
21108;DHT22;10712;52.944;9.098;2023-07-13T00:45:05;15.90;86.60
21108;DHT22;10712;52.944;9.098;2023-07-13T00:47:51;15.90;86.30
21108;DHT22;10712;52.944;9.098;2023-07-13T00:50:18;15.90;86.50
21108;DHT22;10712;52.944;9.098;2023-07-13T00:52:49;15.90;86.40
21108;DHT22;10712;52.944;9.098;2023-07-13T00:55:17;15.90;86.40
21108;DHT22;10712;52.944;9.098;2023-07-13T00:57:44;15.90;86.60
21108;DHT22;10712;52.944;9.098;2023-07-13T01:00:10;15.90;86.60
21108;DHT22;10712;52.944;9.098;2023-07-13T01:02:39;15.80;86.60
21108;DHT22;10712;52.944;9.098;2023-07-13T01:05:11;15.90;86.70
21108;DHT22;10712;52.944;9.098;2023-07-13T01:07:40;15.80;86.60
21108;DHT22;10712;52.944;9.098;2023-07-13T01:10:08;15.80;86.70
21108;DHT22;10712;52.944;9.098;2023-07-13T01:12:34;15.80;86.50
21108;DHT22;10712;52.944;9.098;2023-07-13T01:15:01;15.70;86.50
21108;DHT22;10712;52.944;9.098;2023-07-13T01:17:29;15.70;86.70
21108;DHT22;10712;52.944;9.098;2023-07-13T01:19:55;15.70;86.80
21108;DHT22;10712;52.944;9.098;2023-07-13T01:22:22;15.70;86.70
21108;DHT22;10712;52.944;9.098;2023-07-13T01:24:52;15.70;86.60
21108;DHT22;10712;52.944;9.098;2023-07-13T01:27:25;15.70;86.50
21108;DHT22;10712;52.944;9.098;2023-07-13T01:29:52;15.60;86.50
21108;DHT22;10712;52.944;9.098;2023-07-13T01:32:21;15.50;87.00
21108;DHT22;10712;52.944;9.098;2023-07-13T01:34:53;15.50;87.30
21108;DHT22;10712;52.944;9.098;2023-07-13T01:37:23;15.60;87.30
21108;DHT22;10712;52.944;9.098;2023-07-13T01:39:51;15.60;87.20
21108;DHT22;10712;52.944;9.098;2023-07-13T01:42:17;15.60;87.40
21108;DHT22;10712;52.944;9.098;2023-07-13T01:44:43;15.60;87.40
21108;DHT22;10712;52.944;9.098;2023-07-13T01:47:09;15.60;87.20
21108;DHT22;10712;52.944;9.098;2023-07-13T01:49:36;15.60;87.30
21108;DHT22;10712;52.944;9.098;2023-07-13T01:52:03;15.60;87.30
21108;DHT22;10712;52.944;9.098;2023-07-13T01:54:30;15.50;87.30
21108;DHT22;10712;52.944;9.098;2023-07-13T01:56:56;15.50;87.20
21108;DHT22;10712;52.944;9.098;2023-07-13T01:59:22;15.50;87.30
21108;DHT22;10712;52.944;9.098;2023-07-13T02:01:48;15.50;87.40
21108;DHT22;10712;52.944;9.098;2023-07-13T02:04:13;15.50;87.40
21108;DHT22;10712;52.944;9.098;2023-07-13T02:06:39;15.50;87.30
21108;DHT22;10712;52.944;9.098;2023-07-13T02:09:05;15.50;87.10
21108;DHT22;10712;52.944;9.098;2023-07-13T02:11:33;15.50;86.90
21108;DHT22;10712;52.944;9.098;2023-07-13T02:14:00;15.50;87.00
21108;DHT22;10712;52.944;9.098;2023-07-13T02:16:30;15.50;86.90
21108;DHT22;10712;52.944;9.098;2023-07-13T02:18:57;15.40;86.90
21108;DHT22;10712;52.944;9.098;2023-07-13T02:21:23;15.40;86.60
21108;DHT22;10712;52.944;9.098;2023-07-13T02:23:51;15.30;86.70
21108;DHT22;10712;52.944;9.098;2023-07-13T02:26:18;15.30;86.80
21108;DHT22;10712;52.944;9.098;2023-07-13T02:28:44;15.30;86.80
21108;DHT22;10712;52.944;9.098;2023-07-13T02:31:13;15.30;87.00
21108;DHT22;10712;52.944;9.098;2023-07-13T02:33:41;15.30;86.90
21108;DHT22;10712;52.944;9.098;2023-07-13T02:36:07;15.20;86.70
21108;DHT22;10712;52.944;9.098;2023-07-13T02:38:34;15.20;86.60
21108;DHT22;10712;52.944;9.098;2023-07-13T02:41:04;15.10;86.90
21108;DHT22;10712;52.944;9.098;2023-07-13T02:43:32;15.10;87.30
21108;DHT22;10712;52.944;9.098;2023-07-13T02:46:02;15.10;87.30
21108;DHT22;10712;52.944;9.098;2023-07-13T02:48:34;15.10;87.40
21108;DHT22;10712;52.944;9.098;2023-07-13T02:51:01;15.10;87.50
21108;DHT22;10712;52.944;9.098;2023-07-13T02:53:27;15.10;87.50
21108;DHT22;10712;52.944;9.098;2023-07-13T02:55:53;15.10;87.60
21108;DHT22;10712;52.944;9.098;2023-07-13T02:58:18;15.10;87.90
21108;DHT22;10712;52.944;9.098;2023-07-13T03:00:46;15.10;87.90
21108;DHT22;10712;52.944;9.098;2023-07-13T03:03:14;15.10;87.90
21108;DHT22;10712;52.944;9.098;2023-07-13T03:05:42;15.10;87.90
21108;DHT22;10712;52.944;9.098;2023-07-13T03:08:11;15.10;87.90
21108;DHT22;10712;52.944;9.098;2023-07-13T03:10:38;15.10;87.90
21108;DHT22;10712;52.944;9.098;2023-07-13T03:13:07;15.10;87.90
21108;DHT22;10712;52.944;9.098;2023-07-13T03:15:33;15.10;87.80
21108;DHT22;10712;52.944;9.098;2023-07-13T03:17:59;15.10;87.80
21108;DHT22;10712;52.944;9.098;2023-07-13T03:20:25;15.10;87.60
21108;DHT22;10712;52.944;9.098;2023-07-13T03:22:51;15.10;87.80
21108;DHT22;10712;52.944;9.098;2023-07-13T03:25:18;15.10;87.80
21108;DHT22;10712;52.944;9.098;2023-07-13T03:27:43;15.10;87.80
21108;DHT22;10712;52.944;9.098;2023-07-13T03:30:10;15.10;87.90
21108;DHT22;10712;52.944;9.098;2023-07-13T03:32:37;15.10;87.90
21108;DHT22;10712;52.944;9.098;2023-07-13T03:35:03;15.10;88.10
21108;DHT22;10712;52.944;9.098;2023-07-13T03:37:31;15.10;88.20
21108;DHT22;10712;52.944;9.098;2023-07-13T03:39:57;15.10;88.30
21108;DHT22;10712;52.944;9.098;2023-07-13T03:42:23;15.10;88.30
21108;DHT22;10712;52.944;9.098;2023-07-13T03:44:49;15.10;88.40
21108;DHT22;10712;52.944;9.098;2023-07-13T03:47:18;15.10;88.40
21108;DHT22;10712;52.944;9.098;2023-07-13T03:49:45;15.10;88.50
21108;DHT22;10712;52.944;9.098;2023-07-13T03:52:12;15.10;88.50
21108;DHT22;10712;52.944;9.098;2023-07-13T03:54:38;15.20;88.60
21108;DHT22;10712;52.944;9.098;2023-07-13T03:57:05;15.20;88.40
21108;DHT22;10712;52.944;9.098;2023-07-13T03:59:33;15.20;88.50
21108;DHT22;10712;52.944;9.098;2023-07-13T04:02:01;15.20;88.60
21108;DHT22;10712;52.944;9.098;2023-07-13T04:04:26;15.20;88.50
21108;DHT22;10712;52.944;9.098;2023-07-13T04:06:52;15.20;88.40
21108;DHT22;10712;52.944;9.098;2023-07-13T04:09:19;15.20;88.60
21108;DHT22;10712;52.944;9.098;2023-07-13T04:11:46;15.30;88.60
21108;DHT22;10712;52.944;9.098;2023-07-13T04:14:12;15.30;88.70
21108;DHT22;10712;52.944;9.098;2023-07-13T04:16:37;15.30;88.70
21108;DHT22;10712;52.944;9.098;2023-07-13T04:19:03;15.30;88.70
21108;DHT22;10712;52.944;9.098;2023-07-13T04:21:31;15.30;88.50
21108;DHT22;10712;52.944;9.098;2023-07-13T04:23:57;15.40;88.60
21108;DHT22;10712;52.944;9.098;2023-07-13T04:26:23;15.40;88.60
21108;DHT22;10712;52.944;9.098;2023-07-13T04:28:51;15.40;88.50
21108;DHT22;10712;52.944;9.098;2023-07-13T04:31:18;15.40;88.50
21108;DHT22;10712;52.944;9.098;2023-07-13T04:33:44;15.40;88.50
21108;DHT22;10712;52.944;9.098;2023-07-13T04:36:10;15.40;88.50
21108;DHT22;10712;52.944;9.098;2023-07-13T04:38:36;15.40;88.50
21108;DHT22;10712;52.944;9.098;2023-07-13T04:41:05;15.40;88.60
21108;DHT22;10712;52.944;9.098;2023-07-13T04:43:34;15.50;88.60
21108;DHT22;10712;52.944;9.098;2023-07-13T04:46:09;15.50;88.80
21108;DHT22;10712;52.944;9.098;2023-07-13T04:48:37;15.50;88.70
21108;DHT22;10712;52.944;9.098;2023-07-13T04:51:04;15.60;88.80
21108;DHT22;10712;52.944;9.098;2023-07-13T04:53:30;15.60;88.80
21108;DHT22;10712;52.944;9.098;2023-07-13T04:55:58;15.60;88.90
21108;DHT22;10712;52.944;9.098;2023-07-13T04:58:25;15.60;88.60
21108;DHT22;10712;52.944;9.098;2023-07-13T05:00:51;15.60;88.60
21108;DHT22;10712;52.944;9.098;2023-07-13T05:03:17;15.70;88.60
21108;DHT22;10712;52.944;9.098;2023-07-13T05:05:43;15.70;88.60
21108;DHT22;10712;52.944;9.098;2023-07-13T05:08:08;15.70;88.70
21108;DHT22;10712;52.944;9.098;2023-07-13T05:10:35;15.70;88.60
21108;DHT22;10712;52.944;9.098;2023-07-13T05:13:01;15.70;88.40
21108;DHT22;10712;52.944;9.098;2023-07-13T05:15:27;15.70;88.20
21108;DHT22;10712;52.944;9.098;2023-07-13T05:17:53;15.70;88.30
21108;DHT22;10712;52.944;9.098;2023-07-13T05:20:19;15.70;88.30
21108;DHT22;10712;52.944;9.098;2023-07-13T05:22:45;15.70;88.20
21108;DHT22;10712;52.944;9.098;2023-07-13T05:25:14;15.70;88.20
21108;DHT22;10712;52.944;9.098;2023-07-13T05:27:40;15.80;88.30
21108;DHT22;10712;52.944;9.098;2023-07-13T05:30:06;15.80;88.40
21108;DHT22;10712;52.944;9.098;2023-07-13T05:32:36;15.90;88.40
21108;DHT22;10712;52.944;9.098;2023-07-13T05:35:02;15.90;88.50
21108;DHT22;10712;52.944;9.098;2023-07-13T05:37:28;16.00;88.50
21108;DHT22;10712;52.944;9.098;2023-07-13T05:39:53;16.10;88.40
21108;DHT22;10712;52.944;9.098;2023-07-13T05:42:19;16.10;88.10
21108;DHT22;10712;52.944;9.098;2023-07-13T05:44:45;16.10;88.00
21108;DHT22;10712;52.944;9.098;2023-07-13T05:47:11;16.20;87.90
21108;DHT22;10712;52.944;9.098;2023-07-13T05:49:37;16.20;87.80
21108;DHT22;10712;52.944;9.098;2023-07-13T05:52:03;16.20;87.70
21108;DHT22;10712;52.944;9.098;2023-07-13T05:54:29;16.20;87.60
21108;DHT22;10712;52.944;9.098;2023-07-13T05:56:55;16.30;87.60
21108;DHT22;10712;52.944;9.098;2023-07-13T05:59:21;16.30;87.60
21108;DHT22;10712;52.944;9.098;2023-07-13T06:01:47;16.30;87.60
21108;DHT22;10712;52.944;9.098;2023-07-13T06:04:12;16.40;87.50
21108;DHT22;10712;52.944;9.098;2023-07-13T06:06:38;16.40;87.40
21108;DHT22;10712;52.944;9.098;2023-07-13T06:09:04;16.50;87.20
21108;DHT22;10712;52.944;9.098;2023-07-13T06:11:30;16.50;87.00
21108;DHT22;10712;52.944;9.098;2023-07-13T06:13:56;16.60;86.80
21108;DHT22;10712;52.944;9.098;2023-07-13T06:16:23;16.60;86.60
21108;DHT22;10712;52.944;9.098;2023-07-13T06:18:48;16.70;86.40
21108;DHT22;10712;52.944;9.098;2023-07-13T06:21:16;16.70;86.40
21108;DHT22;10712;52.944;9.098;2023-07-13T06:23:45;16.80;86.30
21108;DHT22;10712;52.944;9.098;2023-07-13T06:26:13;16.90;86.20
21108;DHT22;10712;52.944;9.098;2023-07-13T06:28:39;16.90;86.20
21108;DHT22;10712;52.944;9.098;2023-07-13T06:31:07;17.00;86.00
21108;DHT22;10712;52.944;9.098;2023-07-13T06:33:34;17.00;85.40
21108;DHT22;10712;52.944;9.098;2023-07-13T06:36:02;17.10;85.30
21108;DHT22;10712;52.944;9.098;2023-07-13T06:38:28;17.10;85.30
21108;DHT22;10712;52.944;9.098;2023-07-13T06:40:54;17.10;85.20
21108;DHT22;10712;52.944;9.098;2023-07-13T06:43:20;17.20;85.00
21108;DHT22;10712;52.944;9.098;2023-07-13T06:45:48;17.30;84.90
21108;DHT22;10712;52.944;9.098;2023-07-13T06:48:16;17.30;84.70
21108;DHT22;10712;52.944;9.098;2023-07-13T06:50:43;17.40;84.90
21108;DHT22;10712;52.944;9.098;2023-07-13T06:53:10;17.50;84.50
21108;DHT22;10712;52.944;9.098;2023-07-13T06:55:37;17.60;84.30
21108;DHT22;10712;52.944;9.098;2023-07-13T06:58:03;17.70;84.20
21108;DHT22;10712;52.944;9.098;2023-07-13T07:00:29;17.80;84.20
21108;DHT22;10712;52.944;9.098;2023-07-13T07:02:55;17.90;84.00
21108;DHT22;10712;52.944;9.098;2023-07-13T07:05:21;17.90;83.70
21108;DHT22;10712;52.944;9.098;2023-07-13T07:07:52;18.00;83.50
21108;DHT22;10712;52.944;9.098;2023-07-13T07:10:19;18.10;82.10
21108;DHT22;10712;52.944;9.098;2023-07-13T07:12:46;18.10;82.00
21108;DHT22;10712;52.944;9.098;2023-07-13T07:15:12;18.10;82.20
21108;DHT22;10712;52.944;9.098;2023-07-13T07:17:38;18.10;81.60
21108;DHT22;10712;52.944;9.098;2023-07-13T07:20:05;18.10;81.70
21108;DHT22;10712;52.944;9.098;2023-07-13T07:22:31;18.10;81.50
21108;DHT22;10712;52.944;9.098;2023-07-13T07:24:57;18.10;81.60
21108;DHT22;10712;52.944;9.098;2023-07-13T07:27:24;18.20;81.90
21108;DHT22;10712;52.944;9.098;2023-07-13T07:29:50;18.20;82.00
21108;DHT22;10712;52.944;9.098;2023-07-13T07:32:16;18.30;81.50
21108;DHT22;10712;52.944;9.098;2023-07-13T07:34:42;18.40;81.20
21108;DHT22;10712;52.944;9.098;2023-07-13T07:37:11;18.40;81.40
21108;DHT22;10712;52.944;9.098;2023-07-13T07:39:38;18.50;81.40
21108;DHT22;10712;52.944;9.098;2023-07-13T07:42:04;18.60;81.30
21108;DHT22;10712;52.944;9.098;2023-07-13T07:44:31;18.60;81.10
21108;DHT22;10712;52.944;9.098;2023-07-13T07:46:58;18.70;80.80
21108;DHT22;10712;52.944;9.098;2023-07-13T07:49:24;18.70;80.60
21108;DHT22;10712;52.944;9.098;2023-07-13T07:51:50;18.80;80.40
21108;DHT22;10712;52.944;9.098;2023-07-13T07:54:17;18.90;80.90
21108;DHT22;10712;52.944;9.098;2023-07-13T07:56:43;19.00;80.50
21108;DHT22;10712;52.944;9.098;2023-07-13T07:59:09;19.00;80.00
21108;DHT22;10712;52.944;9.098;2023-07-13T08:01:35;19.10;79.50
21108;DHT22;10712;52.944;9.098;2023-07-13T08:04:01;19.10;79.50
21108;DHT22;10712;52.944;9.098;2023-07-13T08:06:27;19.10;78.80
21108;DHT22;10712;52.944;9.098;2023-07-13T08:08:54;19.10;78.30
21108;DHT22;10712;52.944;9.098;2023-07-13T08:11:21;19.10;78.70
21108;DHT22;10712;52.944;9.098;2023-07-13T08:13:47;19.20;78.90
21108;DHT22;10712;52.944;9.098;2023-07-13T08:16:14;19.20;79.20
21108;DHT22;10712;52.944;9.098;2023-07-13T08:18:40;19.30;78.70
21108;DHT22;10712;52.944;9.098;2023-07-13T08:21:07;19.40;78.40
21108;DHT22;10712;52.944;9.098;2023-07-13T08:23:34;19.50;77.60
21108;DHT22;10712;52.944;9.098;2023-07-13T08:26:01;19.50;77.70
21108;DHT22;10712;52.944;9.098;2023-07-13T08:28:28;19.50;78.10
21108;DHT22;10712;52.944;9.098;2023-07-13T08:30:54;19.60;78.30
21108;DHT22;10712;52.944;9.098;2023-07-13T08:33:22;19.60;77.70
21108;DHT22;10712;52.944;9.098;2023-07-13T08:35:51;19.60;77.20
21108;DHT22;10712;52.944;9.098;2023-07-13T08:38:17;19.60;76.90
21108;DHT22;10712;52.944;9.098;2023-07-13T08:40:45;19.60;77.00
21108;DHT22;10712;52.944;9.098;2023-07-13T08:43:19;19.70;77.20
21108;DHT22;10712;52.944;9.098;2023-07-13T08:45:54;19.80;76.40
21108;DHT22;10712;52.944;9.098;2023-07-13T08:48:33;19.80;76.30
21108;DHT22;10712;52.944;9.098;2023-07-13T08:54:28;19.90;76.50
21108;DHT22;10712;52.944;9.098;2023-07-13T08:57:00;19.90;75.70
21108;DHT22;10712;52.944;9.098;2023-07-13T08:59:35;19.90;74.90
21108;DHT22;10712;52.944;9.098;2023-07-13T09:08:20;19.90;74.80
21108;DHT22;10712;52.944;9.098;2023-07-13T09:14:19;19.90;74.70
21108;DHT22;10712;52.944;9.098;2023-07-13T09:16:55;19.90;73.80
21108;DHT22;10712;52.944;9.098;2023-07-13T09:19:26;19.90;73.90
21108;DHT22;10712;52.944;9.098;2023-07-13T09:21:58;19.90;74.40
21108;DHT22;10712;52.944;9.098;2023-07-13T09:27:01;20.00;74.20
21108;DHT22;10712;52.944;9.098;2023-07-13T09:29:37;20.10;74.30
21108;DHT22;10712;52.944;9.098;2023-07-13T09:32:12;20.20;74.50
21108;DHT22;10712;52.944;9.098;2023-07-13T09:34:50;20.30;73.40
21108;DHT22;10712;52.944;9.098;2023-07-13T09:37:19;20.30;73.00
21108;DHT22;10712;52.944;9.098;2023-07-13T09:39:49;20.20;72.60
21108;DHT22;10712;52.944;9.098;2023-07-13T09:42:20;20.30;73.00
21108;DHT22;10712;52.944;9.098;2023-07-13T09:44:51;20.40;72.20
21108;DHT22;10712;52.944;9.098;2023-07-13T09:50:06;20.60;72.60
21108;DHT22;10712;52.944;9.098;2023-07-13T09:52:48;20.70;71.50
21108;DHT22;10712;52.944;9.098;2023-07-13T09:57:58;20.80;71.30
21108;DHT22;10712;52.944;9.098;2023-07-13T10:00:30;20.80;71.00
21108;DHT22;10712;52.944;9.098;2023-07-13T10:03:05;20.90;70.80
21108;DHT22;10712;52.944;9.098;2023-07-13T10:05:44;21.00;70.60
21108;DHT22;10712;52.944;9.098;2023-07-13T10:08:24;21.00;70.30
21108;DHT22;10712;52.944;9.098;2023-07-13T10:10:57;21.10;70.10
21108;DHT22;10712;52.944;9.098;2023-07-13T10:13:26;21.20;69.10
21108;DHT22;10712;52.944;9.098;2023-07-13T10:15:52;21.10;67.80
21108;DHT22;10712;52.944;9.098;2023-07-13T10:18:20;21.20;68.20
21108;DHT22;10712;52.944;9.098;2023-07-13T10:20:46;21.20;67.80
21108;DHT22;10712;52.944;9.098;2023-07-13T10:23:17;21.30;67.90
21108;DHT22;10712;52.944;9.098;2023-07-13T10:25:48;21.40;66.50
21108;DHT22;10712;52.944;9.098;2023-07-13T10:28:28;21.40;66.40
21108;DHT22;10712;52.944;9.098;2023-07-13T10:30:59;21.50;66.50
21108;DHT22;10712;52.944;9.098;2023-07-13T10:33:28;21.60;65.80
21108;DHT22;10712;52.944;9.098;2023-07-13T10:36:03;21.50;65.60
21108;DHT22;10712;52.944;9.098;2023-07-13T10:38:41;21.50;66.30
21108;DHT22;10712;52.944;9.098;2023-07-13T10:41:14;21.60;67.00
21108;DHT22;10712;52.944;9.098;2023-07-13T10:43:46;21.60;66.90
21108;DHT22;10712;52.944;9.098;2023-07-13T10:46:19;21.60;66.20
21108;DHT22;10712;52.944;9.098;2023-07-13T10:48:52;21.60;65.80
21108;DHT22;10712;52.944;9.098;2023-07-13T10:51:22;21.60;66.30
21108;DHT22;10712;52.944;9.098;2023-07-13T10:56:39;21.70;65.70
21108;DHT22;10712;52.944;9.098;2023-07-13T11:01:51;22.00;65.00
21108;DHT22;10712;52.944;9.098;2023-07-13T11:04:21;22.10;65.00
21108;DHT22;10712;52.944;9.098;2023-07-13T11:06:53;22.10;63.70
21108;DHT22;10712;52.944;9.098;2023-07-13T11:09:36;22.10;63.70
21108;DHT22;10712;52.944;9.098;2023-07-13T11:12:08;22.00;64.20
21108;DHT22;10712;52.944;9.098;2023-07-13T11:23:17;21.90;64.20
21108;DHT22;10712;52.944;9.098;2023-07-13T11:25:52;22.10;62.80
21108;DHT22;10712;52.944;9.098;2023-07-13T11:28:23;22.20;63.10
21108;DHT22;10712;52.944;9.098;2023-07-13T11:38:38;21.30;63.60
21108;DHT22;10712;52.944;9.098;2023-07-13T11:41:35;21.00;64.90
21108;DHT22;10712;52.944;9.098;2023-07-13T11:44:12;20.70;64.40
21108;DHT22;10712;52.944;9.098;2023-07-13T11:46:49;20.50;65.20
21108;DHT22;10712;52.944;9.098;2023-07-13T11:49:22;20.30;65.90
21108;DHT22;10712;52.944;9.098;2023-07-13T11:51:51;20.10;66.20
21108;DHT22;10712;52.944;9.098;2023-07-13T11:54:25;20.00;66.40
21108;DHT22;10712;52.944;9.098;2023-07-13T11:57:01;19.90;66.70
21108;DHT22;10712;52.944;9.098;2023-07-13T11:59:51;19.70;67.30
21108;DHT22;10712;52.944;9.098;2023-07-13T12:02:33;19.50;68.40
21108;DHT22;10712;52.944;9.098;2023-07-13T12:05:03;19.40;69.10
21108;DHT22;10712;52.944;9.098;2023-07-13T12:07:32;19.30;70.20
21108;DHT22;10712;52.944;9.098;2023-07-13T12:10:25;19.20;71.20
21108;DHT22;10712;52.944;9.098;2023-07-13T12:13:04;19.10;72.10
21108;DHT22;10712;52.944;9.098;2023-07-13T12:15:42;19.00;72.90
21108;DHT22;10712;52.944;9.098;2023-07-13T12:18:14;18.90;73.50
21108;DHT22;10712;52.944;9.098;2023-07-13T12:20:41;18.80;75.20
21108;DHT22;10712;52.944;9.098;2023-07-13T12:26:03;18.20;76.70
21108;DHT22;10712;52.944;9.098;2023-07-13T12:28:44;18.00;78.00
21108;DHT22;10712;52.944;9.098;2023-07-13T12:31:34;17.70;79.50
21108;DHT22;10712;52.944;9.098;2023-07-13T12:36:52;17.30;81.10
21108;DHT22;10712;52.944;9.098;2023-07-13T12:44:47;17.20;82.60
21108;DHT22;10712;52.944;9.098;2023-07-13T12:47:14;17.20;82.90
21108;DHT22;10712;52.944;9.098;2023-07-13T12:49:50;17.20;83.10
21108;DHT22;10712;52.944;9.098;2023-07-13T12:52:30;17.20;83.30
21108;DHT22;10712;52.944;9.098;2023-07-13T12:55:14;17.20;83.50
21108;DHT22;10712;52.944;9.098;2023-07-13T12:58:10;17.20;83.60
21108;DHT22;10712;52.944;9.098;2023-07-13T13:00:49;17.20;83.30
21108;DHT22;10712;52.944;9.098;2023-07-13T13:06:28;17.20;83.60
21108;DHT22;10712;52.944;9.098;2023-07-13T13:08:58;17.20;83.60
21108;DHT22;10712;52.944;9.098;2023-07-13T13:11:27;17.10;83.90
21108;DHT22;10712;52.944;9.098;2023-07-13T13:13:54;17.10;84.20
21108;DHT22;10712;52.944;9.098;2023-07-13T13:16:34;17.20;84.30
21108;DHT22;10712;52.944;9.098;2023-07-13T13:21:48;17.20;84.70
21108;DHT22;10712;52.944;9.098;2023-07-13T13:24:20;17.30;85.30
21108;DHT22;10712;52.944;9.098;2023-07-13T13:26:50;17.40;85.30
21108;DHT22;10712;52.944;9.098;2023-07-13T13:29:23;17.40;85.70
21108;DHT22;10712;52.944;9.098;2023-07-13T13:31:51;17.50;86.00
21108;DHT22;10712;52.944;9.098;2023-07-13T13:34:18;17.60;86.50
21108;DHT22;10712;52.944;9.098;2023-07-13T13:36:46;17.60;86.10
21108;DHT22;10712;52.944;9.098;2023-07-13T13:39:34;17.70;85.90
21108;DHT22;10712;52.944;9.098;2023-07-13T13:42:02;17.80;86.00
21108;DHT22;10712;52.944;9.098;2023-07-13T13:44:28;17.80;86.30
21108;DHT22;10712;52.944;9.098;2023-07-13T13:46:55;17.90;86.30
21108;DHT22;10712;52.944;9.098;2023-07-13T13:49:26;18.00;86.00
21108;DHT22;10712;52.944;9.098;2023-07-13T13:51:53;18.00;85.50
21108;DHT22;10712;52.944;9.098;2023-07-13T13:54:21;18.10;85.60
21108;DHT22;10712;52.944;9.098;2023-07-13T13:56:49;18.10;85.60
21108;DHT22;10712;52.944;9.098;2023-07-13T13:59:16;18.10;85.40
21108;DHT22;10712;52.944;9.098;2023-07-13T14:01:45;18.10;85.20
21108;DHT22;10712;52.944;9.098;2023-07-13T14:04:18;18.20;85.00
21108;DHT22;10712;52.944;9.098;2023-07-13T14:06:46;18.20;84.90
21108;DHT22;10712;52.944;9.098;2023-07-13T14:09:14;18.10;84.80
21108;DHT22;10712;52.944;9.098;2023-07-13T14:11:42;18.10;84.80
21108;DHT22;10712;52.944;9.098;2023-07-13T14:14:20;18.10;85.10
21108;DHT22;10712;52.944;9.098;2023-07-13T14:16:49;18.10;85.40
21108;DHT22;10712;52.944;9.098;2023-07-13T14:19:20;18.10;85.40
21108;DHT22;10712;52.944;9.098;2023-07-13T14:21:47;18.20;85.20
21108;DHT22;10712;52.944;9.098;2023-07-13T14:24:15;18.20;84.90
21108;DHT22;10712;52.944;9.098;2023-07-13T14:26:41;18.20;85.00
21108;DHT22;10712;52.944;9.098;2023-07-13T14:29:16;18.30;84.40
21108;DHT22;10712;52.944;9.098;2023-07-13T14:31:44;18.20;84.50
21108;DHT22;10712;52.944;9.098;2023-07-13T14:34:11;18.20;84.30
21108;DHT22;10712;52.944;9.098;2023-07-13T14:36:42;18.30;84.10
21108;DHT22;10712;52.944;9.098;2023-07-13T14:39:19;18.30;84.10
21108;DHT22;10712;52.944;9.098;2023-07-13T14:41:50;18.40;84.00
21108;DHT22;10712;52.944;9.098;2023-07-13T14:44:20;18.40;83.70
21108;DHT22;10712;52.944;9.098;2023-07-13T14:46:49;18.50;83.70
21108;DHT22;10712;52.944;9.098;2023-07-13T14:49:39;18.70;83.90
21108;DHT22;10712;52.944;9.098;2023-07-13T14:52:17;18.80;83.60
21108;DHT22;10712;52.944;9.098;2023-07-13T14:54:45;19.00;82.70
21108;DHT22;10712;52.944;9.098;2023-07-13T14:57:16;19.10;82.70
21108;DHT22;10712;52.944;9.098;2023-07-13T14:59:44;19.20;82.10
21108;DHT22;10712;52.944;9.098;2023-07-13T15:05:15;19.30;81.90
21108;DHT22;10712;52.944;9.098;2023-07-13T15:07:43;19.40;81.60
21108;DHT22;10712;52.944;9.098;2023-07-13T15:10:16;19.50;81.80
21108;DHT22;10712;52.944;9.098;2023-07-13T15:12:44;19.60;81.90
21108;DHT22;10712;52.944;9.098;2023-07-13T15:15:10;19.70;81.60
21108;DHT22;10712;52.944;9.098;2023-07-13T15:17:38;19.70;81.10
21108;DHT22;10712;52.944;9.098;2023-07-13T15:20:32;19.70;79.50
21108;DHT22;10712;52.944;9.098;2023-07-13T15:23:01;19.80;78.90
21108;DHT22;10712;52.944;9.098;2023-07-13T15:25:29;19.90;78.70
21108;DHT22;10712;52.944;9.098;2023-07-13T15:27:59;19.90;77.90
21108;DHT22;10712;52.944;9.098;2023-07-13T15:30:29;19.90;77.70
21108;DHT22;10712;52.944;9.098;2023-07-13T15:32:58;20.00;77.90
21108;DHT22;10712;52.944;9.098;2023-07-13T15:35:32;20.00;77.80
21108;DHT22;10712;52.944;9.098;2023-07-13T15:37:58;20.00;77.40
21108;DHT22;10712;52.944;9.098;2023-07-13T15:40:24;20.00;76.90
21108;DHT22;10712;52.944;9.098;2023-07-13T15:42:50;20.00;75.60
21108;DHT22;10712;52.944;9.098;2023-07-13T15:45:17;20.00;74.90
21108;DHT22;10712;52.944;9.098;2023-07-13T15:47:44;20.00;73.90
21108;DHT22;10712;52.944;9.098;2023-07-13T15:50:19;19.90;74.50
21108;DHT22;10712;52.944;9.098;2023-07-13T15:52:50;19.90;75.00
21108;DHT22;10712;52.944;9.098;2023-07-13T15:55:18;19.90;75.50
21108;DHT22;10712;52.944;9.098;2023-07-13T15:57:50;19.90;75.40
21108;DHT22;10712;52.944;9.098;2023-07-13T16:00:22;19.80;75.30
21108;DHT22;10712;52.944;9.098;2023-07-13T16:02:50;19.70;74.90
21108;DHT22;10712;52.944;9.098;2023-07-13T16:05:18;19.70;75.10
21108;DHT22;10712;52.944;9.098;2023-07-13T16:07:48;19.60;75.20
21108;DHT22;10712;52.944;9.098;2023-07-13T16:10:36;19.60;76.00
21108;DHT22;10712;52.944;9.098;2023-07-13T16:13:04;19.50;75.80
21108;DHT22;10712;52.944;9.098;2023-07-13T16:15:32;19.30;74.10
21108;DHT22;10712;52.944;9.098;2023-07-13T16:17:58;19.10;73.80
21108;DHT22;10712;52.944;9.098;2023-07-13T16:20:24;18.90;73.80
21108;DHT22;10712;52.944;9.098;2023-07-13T16:22:53;18.80;74.20
21108;DHT22;10712;52.944;9.098;2023-07-13T16:25:25;18.60;75.40
21108;DHT22;10712;52.944;9.098;2023-07-13T16:27:53;18.40;77.00
21108;DHT22;10712;52.944;9.098;2023-07-13T16:30:27;18.20;78.70
21108;DHT22;10712;52.944;9.098;2023-07-13T16:32:59;17.90;79.70
21108;DHT22;10712;52.944;9.098;2023-07-13T16:35:38;17.40;79.50
21108;DHT22;10712;52.944;9.098;2023-07-13T16:38:19;17.10;80.70
21108;DHT22;10712;52.944;9.098;2023-07-13T16:40:47;16.90;82.10
21108;DHT22;10712;52.944;9.098;2023-07-13T16:43:16;16.80;83.10
21108;DHT22;10712;52.944;9.098;2023-07-13T16:45:47;16.70;83.10